Time;durP1;ratioP1;P1;durP2;ratioP2;P2;SDS_P1;SDS_P2;PMS_P1;PMS_P2;Temp;Humidity;BMP_temperature;BMP_pressure;BME280_temperature;BME280_humidity;BME280_pressure;Samples;Min_cycle;Max_cycle;Signal;HPM_P1;HPM_P2
2023/10/25 00:02:21;;;;;;;1.63;1.53;;;;;;;;;;4990461;28;20301;-74
2023/10/25 00:04:46;;;;;;;1.67;1.57;;;;;;;;;;4986017;28;20257;-74
2023/10/25 00:07:12;;;;;;;1.80;1.70;;;;;;;;;;5009422;28;20203;-74
2023/10/25 00:09:37;;;;;;;1.70;1.60;;;;;;;;;;4987132;28;20223;-74
2023/10/25 00:12:02;;;;;;;1.90;1.80;;;;;;;;;;4985410;28;20238;-74
2023/10/25 00:14:28;;;;;;;2.57;1.70;;;;;;;;;;5016185;28;20183;-74
2023/10/25 00:16:53;;;;;;;2.10;1.57;;;;;;;;;;5006675;28;20267;-74
2023/10/25 00:19:19;;;;;;;1.63;1.53;;;;;;;;;;4992054;28;20264;-74
2023/10/25 00:21:44;;;;;;;2.40;1.70;;;;;;;;;;4994713;28;20190;-74
2023/10/25 00:24:10;;;;;;;1.80;1.70;;;;;;;;;;4995520;28;20187;-74
2023/10/25 00:26:35;;;;;;;1.90;1.80;;;;;;;;;;4995008;28;20164;-74
2023/10/25 00:29:00;;;;;;;1.80;1.70;;;;;;;;;;4993719;28;20199;-74
2023/10/25 00:31:25;;;;;;;2.40;1.60;;;;;;;;;;5007568;28;20187;-74
2023/10/25 00:33:51;;;;;;;2.03;1.83;;;;;;;;;;5015258;28;20231;-74
2023/10/25 00:36:16;;;;;;;2.57;2.20;;;;;;;;;;5003881;28;20197;-74
2023/10/25 00:38:41;;;;;;;2.20;2.10;;;;;;;;;;5008737;28;20275;-74
2023/10/25 00:41:07;;;;;;;2.33;2.13;;;;;;;;;;4992862;28;20201;-74
2023/10/25 00:43:32;;;;;;;5.00;2.10;;;;;;;;;;4990826;28;20180;-74
2023/10/25 00:46:19;;;;;;;1.83;1.63;;;;;;;;;;5009553;28;20198;-74
2023/10/25 00:48:48;;;;;;;1.60;1.50;;;;;;;;;;4986753;28;20168;-74
2023/10/25 00:51:14;;;;;;;2.70;2.00;;;;;;;;;;4989267;28;20194;-74
2023/10/25 00:53:40;;;;;;;2.60;1.70;;;;;;;;;;4988852;28;20176;-74
2023/10/25 00:56:07;;;;;;;1.60;1.50;;;;;;;;;;4989167;28;20236;-74
2023/10/25 00:58:32;;;;;;;1.93;1.77;;;;;;;;;;4989694;28;20185;-74
2023/10/25 01:00:58;;;;;;;1.90;1.70;;;;;;;;;;4990478;28;20193;-74
2023/10/25 01:03:23;;;;;;;3.40;1.50;;;;;;;;;;4992750;28;20259;-74
2023/10/25 01:05:49;;;;;;;2.47;1.60;;;;;;;;;;4991655;28;20175;-74
2023/10/25 01:08:18;;;;;;;2.10;1.60;;;;;;;;;;4990497;28;20179;-74
2023/10/25 01:10:43;;;;;;;1.40;1.30;;;;;;;;;;5004109;28;20231;-74
2023/10/25 01:13:09;;;;;;;1.50;1.40;;;;;;;;;;5008548;28;20258;-74
2023/10/25 01:15:34;;;;;;;1.53;1.43;;;;;;;;;;4987064;28;20168;-74
2023/10/25 01:17:59;;;;;;;1.27;1.20;;;;;;;;;;5002913;28;20191;-74
2023/10/25 01:20:24;;;;;;;1.53;1.43;;;;;;;;;;4991728;28;20199;-74
2023/10/25 01:22:49;;;;;;;1.67;1.43;;;;;;;;;;4985724;28;20208;-74
2023/10/25 01:25:15;;;;;;;2.17;1.40;;;;;;;;;;4996310;28;20205;-74
2023/10/25 01:27:40;;;;;;;1.50;1.40;;;;;;;;;;5007768;28;20163;-74
2023/10/25 01:30:06;;;;;;;1.40;1.30;;;;;;;;;;4999224;28;20165;-74
2023/10/25 01:32:31;;;;;;;1.97;1.40;;;;;;;;;;4995734;28;20239;-74
2023/10/25 01:34:56;;;;;;;1.67;1.57;;;;;;;;;;5001415;28;20171;-74
2023/10/25 01:37:21;;;;;;;2.20;1.40;;;;;;;;;;4994286;28;20195;-74
2023/10/25 01:39:47;;;;;;;2.37;1.50;;;;;;;;;;4994968;28;20176;-74
2023/10/25 01:42:12;;;;;;;1.63;1.53;;;;;;;;;;4996136;28;20199;-74
2023/10/25 01:44:37;;;;;;;3.17;1.60;;;;;;;;;;4988611;28;20164;-74
2023/10/25 01:47:02;;;;;;;1.70;1.60;;;;;;;;;;4989021;28;20227;-74
2023/10/25 01:49:27;;;;;;;1.57;1.43;;;;;;;;;;4990760;28;20210;-74
2023/10/25 01:51:53;;;;;;;1.43;1.33;;;;;;;;;;5010349;28;20178;-74
2023/10/25 01:54:18;;;;;;;3.40;1.80;;;;;;;;;;4993592;28;20199;-74
2023/10/25 01:56:43;;;;;;;1.60;1.50;;;;;;;;;;4990260;28;20180;-74
2023/10/25 01:59:08;;;;;;;1.70;1.60;;;;;;;;;;4993328;28;20207;-74
2023/10/25 02:01:34;;;;;;;1.97;1.87;;;;;;;;;;4993656;28;20251;-74
2023/10/25 02:03:59;;;;;;;1.90;1.80;;;;;;;;;;4992674;28;20163;-74
2023/10/25 02:06:24;;;;;;;1.77;1.67;;;;;;;;;;4994446;28;20258;-74
2023/10/25 02:08:49;;;;;;;1.97;1.87;;;;;;;;;;4994483;28;20199;-74
2023/10/25 02:11:20;;;;;;;1.73;1.63;;;;;;;;;;5012257;28;20226;-74
2023/10/25 02:13:45;;;;;;;2.57;2.20;;;;;;;;;;4985452;28;20224;-74
2023/10/25 02:16:14;;;;;;;1.97;1.87;;;;;;;;;;4991903;28;20207;-73
2023/10/25 02:18:40;;;;;;;2.10;1.70;;;;;;;;;;4988895;28;20177;-74
2023/10/25 02:21:05;;;;;;;1.90;1.80;;;;;;;;;;5011878;28;20211;-74
2023/10/25 02:23:30;;;;;;;2.00;1.80;;;;;;;;;;4991121;28;20242;-74
2023/10/25 02:25:55;;;;;;;1.93;1.80;;;;;;;;;;4992905;28;20180;-74
2023/10/25 02:28:21;;;;;;;1.87;1.77;;;;;;;;;;4990826;28;20168;-74
2023/10/25 02:30:46;;;;;;;2.20;2.00;;;;;;;;;;4989037;28;20175;-74
2023/10/25 02:33:11;;;;;;;2.00;1.90;;;;;;;;;;4987061;28;20168;-73
2023/10/25 02:35:36;;;;;;;2.00;1.80;;;;;;;;;;5012265;28;20204;-74
2023/10/25 02:38:01;;;;;;;2.33;2.00;;;;;;;;;;4995074;28;20200;-74
2023/10/25 02:40:27;;;;;;;1.90;1.80;;;;;;;;;;4985365;28;20179;-74
2023/10/25 02:42:52;;;;;;;2.90;1.83;;;;;;;;;;4990219;28;20200;-74
2023/10/25 02:45:17;;;;;;;2.07;1.90;;;;;;;;;;4993990;28;20176;-74
2023/10/25 02:47:42;;;;;;;2.27;2.10;;;;;;;;;;4992737;28;20176;-74
2023/10/25 02:50:08;;;;;;;2.00;1.90;;;;;;;;;;4987568;28;20171;-74
2023/10/25 02:52:33;;;;;;;2.03;1.93;;;;;;;;;;4991738;28;20206;-74
2023/10/25 02:54:58;;;;;;;2.00;1.90;;;;;;;;;;4991003;28;20185;-74
2023/10/25 02:57:23;;;;;;;3.23;2.20;;;;;;;;;;5002302;28;20176;-74
2023/10/25 02:59:51;;;;;;;2.30;2.10;;;;;;;;;;4993228;28;20198;-74
2023/10/25 03:02:16;;;;;;;2.53;2.33;;;;;;;;;;4991580;28;20184;-74
2023/10/25 03:04:42;;;;;;;2.13;2.03;;;;;;;;;;5006905;28;20196;-74
2023/10/25 03:07:07;;;;;;;4.17;2.83;;;;;;;;;;5009147;28;20168;-74
2023/10/25 03:09:32;;;;;;;6.37;2.80;;;;;;;;;;4988978;28;20180;-74
2023/10/25 03:11:58;;;;;;;3.23;2.93;;;;;;;;;;4988413;28;20247;-74
2023/10/25 03:14:23;;;;;;;3.23;2.93;;;;;;;;;;5010619;28;20177;-74
2023/10/25 03:16:49;;;;;;;2.67;2.47;;;;;;;;;;5007966;28;20178;-74
2023/10/25 03:19:14;;;;;;;3.27;2.60;;;;;;;;;;5008658;28;20263;-74
2023/10/25 03:21:39;;;;;;;2.90;2.70;;;;;;;;;;5009539;28;20235;-74
2023/10/25 03:24:05;;;;;;;2.80;2.60;;;;;;;;;;4993013;28;20411;-74
2023/10/25 03:26:30;;;;;;;2.70;2.50;;;;;;;;;;4996499;28;20206;-74
2023/10/25 03:28:57;;;;;;;2.83;2.63;;;;;;;;;;4986830;28;20181;-74
2023/10/25 03:31:22;;;;;;;2.83;2.63;;;;;;;;;;5003899;28;20164;-74
2023/10/25 03:33:48;;;;;;;3.00;2.80;;;;;;;;;;4990189;28;20175;-74
2023/10/25 03:36:13;;;;;;;3.23;2.87;;;;;;;;;;4990774;28;20188;-74
2023/10/25 03:38:38;;;;;;;3.47;3.17;;;;;;;;;;5007230;28;20193;-74
2023/10/25 03:41:07;;;;;;;4.03;3.63;;;;;;;;;;4993321;28;20267;-74
2023/10/25 03:43:33;;;;;;;3.70;3.40;;;;;;;;;;4986709;28;20283;-74
2023/10/25 03:46:05;;;;;;;3.67;3.20;;;;;;;;;;5006647;28;20231;-74
2023/10/25 03:48:31;;;;;;;4.20;3.80;;;;;;;;;;4985390;28;20182;-74
2023/10/25 03:50:57;;;;;;;3.97;3.60;;;;;;;;;;4988979;28;20171;-74
2023/10/25 03:53:22;;;;;;;3.57;3.27;;;;;;;;;;4991787;28;20262;-74
2023/10/25 03:55:56;;;;;;;3.90;3.50;;;;;;;;;;5009720;28;20173;-74
2023/10/25 03:58:22;;;;;;;3.53;3.13;;;;;;;;;;4987555;28;20176;-74
2023/10/25 04:00:48;;;;;;;3.87;3.40;;;;;;;;;;4989446;28;20171;-74
2023/10/25 04:03:13;;;;;;;3.60;3.30;;;;;;;;;;5009351;28;20175;-74
2023/10/25 04:05:41;;;;;;;3.70;3.40;;;;;;;;;;4986998;28;20759;-74
2023/10/25 04:08:06;;;;;;;4.47;4.07;;;;;;;;;;4986109;28;20176;-74
2023/10/25 04:10:32;;;;;;;5.57;3.77;;;;;;;;;;4991205;28;20179;-73
2023/10/25 04:12:57;;;;;;;4.33;4.03;;;;;;;;;;4997873;28;20232;-74
2023/10/25 04:15:25;;;;;;;4.20;3.90;;;;;;;;;;4990338;28;20180;-74
2023/10/25 04:17:50;;;;;;;4.57;4.17;;;;;;;;;;4986318;28;20315;-74
2023/10/25 04:20:15;;;;;;;4.03;3.73;;;;;;;;;;4987012;28;20271;-74
2023/10/25 04:22:40;;;;;;;5.50;4.30;;;;;;;;;;4981128;28;20412;-74
2023/10/25 04:25:06;;;;;;;4.80;4.40;;;;;;;;;;5004691;28;20175;-74
2023/10/25 04:27:31;;;;;;;5.80;5.30;;;;;;;;;;4992710;28;20217;-74
2023/10/25 04:29:56;;;;;;;5.80;5.20;;;;;;;;;;4990056;28;20190;-74
2023/10/25 04:32:22;;;;;;;6.77;6.17;;;;;;;;;;4987980;28;20246;-74
2023/10/25 04:34:47;;;;;;;13.43;9.10;;;;;;;;;;4987816;28;20176;-74
2023/10/25 04:37:13;;;;;;;14.50;6.73;;;;;;;;;;4984358;28;20172;-74
2023/10/25 04:39:39;;;;;;;22.33;10.43;;;;;;;;;;5002454;28;20417;-74
2023/10/25 04:42:04;;;;;;;53.70;16.27;;;;;;;;;;4997787;28;20255;-74
2023/10/25 04:44:31;;;;;;;26.70;11.20;;;;;;;;;;4983198;28;20279;-73
2023/10/25 04:46:56;;;;;;;74.40;17.13;;;;;;;;;;4982941;28;20231;-74
2023/10/25 04:49:21;;;;;;;67.23;13.40;;;;;;;;;;4987243;28;20213;-74
2023/10/25 04:51:47;;;;;;;37.90;10.00;;;;;;;;;;5007209;28;20180;-74
2023/10/25 04:54:12;;;;;;;56.60;11.30;;;;;;;;;;4986076;28;20179;-75
2023/10/25 04:56:37;;;;;;;41.67;10.87;;;;;;;;;;4989612;28;20183;-74
2023/10/25 04:59:02;;;;;;;52.40;10.87;;;;;;;;;;4990823;28;20183;-73
2023/10/25 05:01:27;;;;;;;49.73;9.03;;;;;;;;;;4988097;28;20191;-74
2023/10/25 05:03:52;;;;;;;40.57;9.57;;;;;;;;;;5001416;28;20176;-74
2023/10/25 05:06:18;;;;;;;89.13;12.30;;;;;;;;;;4989102;28;20184;-74
2023/10/25 05:08:43;;;;;;;38.33;9.27;;;;;;;;;;4979055;28;20182;-80
2023/10/25 05:11:13;;;;;;;57.33;11.03;;;;;;;;;;4993079;28;20171;-80
2023/10/25 05:13:38;;;;;;;40.90;8.20;;;;;;;;;;4992583;28;20234;-80
2023/10/25 05:16:04;;;;;;;119.73;19.17;;;;;;;;;;5007413;28;20182;-80
2023/10/25 05:18:30;;;;;;;51.50;11.07;;;;;;;;;;4991794;28;20183;-80
2023/10/25 05:20:59;;;;;;;30.73;12.87;;;;;;;;;;4992348;28;20218;-80
2023/10/25 05:23:28;;;;;;;39.93;10.23;;;;;;;;;;4992874;28;20246;-80
2023/10/25 05:25:54;;;;;;;15.53;6.57;;;;;;;;;;4985774;28;20242;-80
2023/10/25 05:28:20;;;;;;;11.13;6.70;;;;;;;;;;4991910;28;20266;-80
2023/10/25 05:30:46;;;;;;;8.80;6.50;;;;;;;;;;4984201;28;20173;-80
2023/10/25 05:33:11;;;;;;;5.80;5.30;;;;;;;;;;4983659;28;20242;-80
2023/10/25 05:35:37;;;;;;;12.53;6.20;;;;;;;;;;4985397;28;20311;-79
2023/10/25 05:38:04;;;;;;;6.37;5.77;;;;;;;;;;4991427;28;20172;-80
2023/10/25 05:40:29;;;;;;;7.60;6.67;;;;;;;;;;4992143;28;20174;-80
2023/10/25 05:42:55;;;;;;;7.13;6.30;;;;;;;;;;4990834;28;20270;-80
2023/10/25 05:45:21;;;;;;;6.97;6.37;;;;;;;;;;4986107;28;20178;-78
2023/10/25 05:47:46;;;;;;;7.03;6.33;;;;;;;;;;4991163;28;20180;-80
2023/10/25 05:50:12;;;;;;;6.90;6.30;;;;;;;;;;4990818;28;20168;-80
2023/10/25 05:52:38;;;;;;;7.13;6.43;;;;;;;;;;4991918;28;20192;-80
2023/10/25 05:55:04;;;;;;;7.60;6.90;;;;;;;;;;4990164;28;20198;-80
2023/10/25 05:57:29;;;;;;;8.23;7.43;;;;;;;;;;4987868;28;20274;-80
2023/10/25 05:59:55;;;;;;;7.20;6.60;;;;;;;;;;4991957;28;20278;-80
2023/10/25 06:02:23;;;;;;;7.07;6.43;;;;;;;;;;4985322;28;20226;-80
2023/10/25 06:04:48;;;;;;;8.13;7.40;;;;;;;;;;5007942;28;20175;-80
2023/10/25 06:07:14;;;;;;;9.07;7.73;;;;;;;;;;4988136;28;20181;-80
2023/10/25 06:09:39;;;;;;;8.17;7.40;;;;;;;;;;4994024;28;20182;-80
2023/10/25 06:12:05;;;;;;;8.50;7.70;;;;;;;;;;4992206;28;20326;-80
2023/10/25 06:14:31;;;;;;;9.07;8.17;;;;;;;;;;4998394;28;20211;-80
2023/10/25 06:16:57;;;;;;;8.93;8.03;;;;;;;;;;4995347;28;20234;-80
2023/10/25 06:19:22;;;;;;;11.00;9.77;;;;;;;;;;4998523;28;20172;-80
2023/10/25 06:21:47;;;;;;;10.30;8.77;;;;;;;;;;4990030;28;20243;-79
2023/10/25 06:24:12;;;;;;;11.93;10.63;;;;;;;;;;5002604;28;20167;-79
2023/10/25 06:26:37;;;;;;;10.00;9.00;;;;;;;;;;4993421;28;20172;-80
2023/10/25 06:29:03;;;;;;;14.60;12.33;;;;;;;;;;5015711;28;20177;-80
2023/10/25 06:31:28;;;;;;;10.73;9.63;;;;;;;;;;4990772;28;20180;-80
2023/10/25 06:33:53;;;;;;;16.00;12.80;;;;;;;;;;4982331;28;20249;-81
2023/10/25 06:36:19;;;;;;;12.23;10.60;;;;;;;;;;4994381;28;20180;-80
2023/10/25 06:38:44;;;;;;;15.50;12.60;;;;;;;;;;4989566;28;20186;-79
2023/10/25 06:41:13;;;;;;;13.50;12.10;;;;;;;;;;4993445;28;20201;-80
2023/10/25 06:43:38;;;;;;;10.50;9.40;;;;;;;;;;4989826;28;20167;-81
2023/10/25 06:46:04;;;;;;;13.70;11.87;;;;;;;;;;5010213;28;20186;-80
2023/10/25 06:48:29;;;;;;;24.87;22.10;;;;;;;;;;4991902;28;20209;-80
2023/10/25 06:50:55;;;;;;;12.80;10.77;;;;;;;;;;5010788;28;20168;-80
2023/10/25 06:53:21;;;;;;;13.60;11.43;;;;;;;;;;4990703;28;20175;-80
2023/10/25 06:55:47;;;;;;;12.47;11.07;;;;;;;;;;4994321;28;20168;-80
2023/10/25 06:58:12;;;;;;;13.60;11.30;;;;;;;;;;4992856;28;20194;-80
2023/10/25 07:00:38;;;;;;;12.67;11.40;;;;;;;;;;4994203;28;20175;-80
2023/10/25 07:03:03;;;;;;;11.10;10.00;;;;;;;;;;4991131;28;20195;-80
2023/10/25 07:05:29;;;;;;;12.50;10.73;;;;;;;;;;4990517;28;20182;-80
2023/10/25 07:07:54;;;;;;;12.97;11.67;;;;;;;;;;4997543;28;20176;-79
2023/10/25 07:10:20;;;;;;;13.13;11.63;;;;;;;;;;4988804;28;20215;-80
2023/10/25 07:12:46;;;;;;;12.57;9.77;;;;;;;;;;5003022;28;20227;-80
2023/10/25 07:15:11;;;;;;;12.63;10.23;;;;;;;;;;4998044;28;20203;-79
2023/10/25 07:17:37;;;;;;;10.63;9.53;;;;;;;;;;4992881;28;20222;-80
2023/10/25 07:20:03;;;;;;;12.77;11.47;;;;;;;;;;4993489;28;20168;-80
2023/10/25 07:22:28;;;;;;;11.40;10.27;;;;;;;;;;4994892;28;20206;-80
2023/10/25 07:24:55;;;;;;;12.70;11.13;;;;;;;;;;4995312;28;20300;-80
2023/10/25 07:27:20;;;;;;;12.53;9.93;;;;;;;;;;4989708;28;20167;-80
2023/10/25 07:29:46;;;;;;;11.40;10.20;;;;;;;;;;4996394;28;20227;-80
2023/10/25 07:32:11;;;;;;;12.20;11.00;;;;;;;;;;4990974;28;20172;-79
2023/10/25 07:34:37;;;;;;;12.47;11.00;;;;;;;;;;5005255;28;20179;-80
2023/10/25 07:37:03;;;;;;;12.40;11.03;;;;;;;;;;5010275;28;20616;-81
2023/10/25 07:39:28;;;;;;;10.70;9.43;;;;;;;;;;4989771;28;20215;-80
2023/10/25 07:41:54;;;;;;;11.10;9.90;;;;;;;;;;4988629;28;20231;-80
2023/10/25 07:44:19;;;;;;;12.30;11.00;;;;;;;;;;4992613;28;20167;-81
2023/10/25 07:46:45;;;;;;;10.93;9.73;;;;;;;;;;5001543;28;20178;-80
2023/10/25 07:49:10;;;;;;;12.43;11.20;;;;;;;;;;4989677;28;20167;-80
2023/10/25 07:51:36;;;;;;;10.83;8.60;;;;;;;;;;4992817;28;20190;-79
2023/10/25 07:54:01;;;;;;;11.60;9.57;;;;;;;;;;4986915;28;20676;-80
2023/10/25 07:56:26;;;;;;;11.57;9.17;;;;;;;;;;4993140;28;20187;-79
2023/10/25 07:58:52;;;;;;;12.77;11.47;;;;;;;;;;4990282;28;20180;-79
2023/10/25 08:01:17;;;;;;;13.03;9.83;;;;;;;;;;5010638;28;20192;-79
2023/10/25 08:03:42;;;;;;;13.87;10.53;;;;;;;;;;5004877;28;20179;-80
2023/10/25 08:06:08;;;;;;;12.33;10.63;;;;;;;;;;4992961;28;20176;-80
2023/10/25 08:08:33;;;;;;;11.87;10.13;;;;;;;;;;4987699;28;20228;-80
2023/10/25 08:11:05;;;;;;;11.13;9.93;;;;;;;;;;4992639;28;20199;-80
2023/10/25 08:13:32;;;;;;;11.47;10.00;;;;;;;;;;5010902;28;20241;-79
2023/10/25 08:16:01;;;;;;;11.97;9.90;;;;;;;;;;4992457;28;20224;-80
2023/10/25 08:18:27;;;;;;;13.33;10.93;;;;;;;;;;4987791;28;20181;-80
2023/10/25 08:20:53;;;;;;;11.03;9.67;;;;;;;;;;5009113;28;20168;-80
2023/10/25 08:23:18;;;;;;;10.53;9.33;;;;;;;;;;4993039;28;20236;-79
2023/10/25 08:25:43;;;;;;;11.47;10.33;;;;;;;;;;4994498;28;20170;-79
2023/10/25 08:28:08;;;;;;;11.83;10.63;;;;;;;;;;4988668;28;20170;-79
2023/10/25 08:30:33;;;;;;;10.03;9.03;;;;;;;;;;4988996;28;20259;-79
2023/10/25 08:32:59;;;;;;;12.23;9.77;;;;;;;;;;4988801;28;20172;-79
2023/10/25 08:35:24;;;;;;;9.70;8.80;;;;;;;;;;4989572;28;20186;-80
2023/10/25 08:37:49;;;;;;;10.43;9.30;;;;;;;;;;4988414;28;20192;-79
2023/10/25 08:40:15;;;;;;;11.40;10.33;;;;;;;;;;4992052;28;20193;-79
2023/10/25 08:42:40;;;;;;;10.07;9.17;;;;;;;;;;4991025;28;20196;-79
2023/10/25 08:45:06;;;;;;;9.50;8.37;;;;;;;;;;5005167;28;20216;-80
2023/10/25 08:47:31;;;;;;;9.90;8.90;;;;;;;;;;4991461;28;20212;-80
2023/10/25 08:49:56;;;;;;;12.77;10.90;;;;;;;;;;4988465;28;20182;-79
2023/10/25 08:52:25;;;;;;;10.50;9.50;;;;;;;;;;4989476;28;20217;-79
2023/10/25 08:54:50;;;;;;;9.73;8.73;;;;;;;;;;4990677;28;20191;-78
2023/10/25 08:57:17;;;;;;;10.10;8.97;;;;;;;;;;4988105;28;20175;-81
2023/10/25 08:59:46;;;;;;;9.10;8.20;;;;;;;;;;4991016;28;20503;-80
2023/10/25 09:02:12;;;;;;;9.60;8.70;;;;;;;;;;4992226;28;20196;-80
2023/10/25 09:04:38;;;;;;;9.83;8.93;;;;;;;;;;4989139;28;20177;-81
2023/10/25 09:07:23;;;;;;;10.87;9.77;;;;;;;;;;5011750;28;20197;-81
2023/10/25 09:09:48;;;;;;;10.83;9.70;;;;;;;;;;4987549;28;20181;-80
2023/10/25 09:12:20;;;;;;;10.83;9.83;;;;;;;;;;4988139;28;20225;-80
2023/10/25 09:14:46;;;;;;;10.13;9.13;;;;;;;;;;4991150;28;20180;-81
2023/10/25 09:17:12;;;;;;;10.63;9.63;;;;;;;;;;4991343;28;20188;-81
2023/10/25 09:19:37;;;;;;;10.40;9.40;;;;;;;;;;4993412;28;20425;-80
2023/10/25 09:22:35;;;;;;;10.67;9.53;;;;;;;;;;4992697;28;20210;-81
2023/10/25 09:25:01;;;;;;;10.93;9.67;;;;;;;;;;4947746;28;20181;-81
2023/10/25 09:27:27;;;;;;;11.00;9.90;;;;;;;;;;4994458;28;20175;-81
2023/10/25 09:29:53;;;;;;;11.63;10.47;;;;;;;;;;4988820;28;20553;-82
2023/10/25 09:32:19;;;;;;;12.17;10.97;;;;;;;;;;4990927;28;20179;-80
2023/10/25 09:34:48;;;;;;;13.17;9.77;;;;;;;;;;4988806;28;20180;-82
2023/10/25 09:37:13;;;;;;;10.80;9.70;;;;;;;;;;4984812;28;20174;-81
2023/10/25 09:39:39;;;;;;;11.37;10.23;;;;;;;;;;5008373;28;20188;-80
2023/10/25 09:42:06;;;;;;;11.40;10.30;;;;;;;;;;4991587;28;20201;-80
2023/10/25 09:44:34;;;;;;;12.60;10.20;;;;;;;;;;4987056;28;20180;-80
2023/10/25 09:47:00;;;;;;;11.53;9.63;;;;;;;;;;5009847;28;20207;-81
2023/10/25 09:49:29;;;;;;;11.37;10.20;;;;;;;;;;5009637;28;20205;-80
2023/10/25 09:52:00;;;;;;;11.17;10.10;;;;;;;;;;4991363;28;20182;-80
2023/10/25 09:54:31;;;;;;;11.93;10.73;;;;;;;;;;4993290;28;20274;-81
2023/10/25 09:56:57;;;;;;;11.47;10.30;;;;;;;;;;4994343;28;20206;-81
2023/10/25 09:59:24;;;;;;;11.87;10.57;;;;;;;;;;4995698;28;20173;-80
2023/10/25 10:01:49;;;;;;;11.13;9.90;;;;;;;;;;4994813;28;20196;-81
2023/10/25 10:04:19;;;;;;;10.40;9.40;;;;;;;;;;4993176;28;20227;-81
2023/10/25 10:06:44;;;;;;;10.27;9.13;;;;;;;;;;4992841;28;20200;-81
2023/10/25 10:09:16;;;;;;;10.77;9.77;;;;;;;;;;4993867;28;20199;-80
2023/10/25 10:11:47;;;;;;;17.63;9.97;;;;;;;;;;4996221;28;20278;-81
2023/10/25 10:14:31;;;;;;;10.93;9.93;;;;;;;;;;4995612;28;20292;-80
2023/10/25 10:17:08;;;;;;;10.50;9.50;;;;;;;;;;4992024;28;20190;-81
2023/10/25 10:19:36;;;;;;;10.43;9.37;;;;;;;;;;5008756;28;20189;-80
2023/10/25 10:22:13;;;;;;;10.13;9.23;;;;;;;;;;5010660;28;20198;-81
2023/10/25 10:24:38;;;;;;;10.33;9.23;;;;;;;;;;4992620;28;20181;-81
2023/10/25 10:27:03;;;;;;;10.37;9.50;;;;;;;;;;5014016;28;20186;-79
2023/10/25 10:29:31;;;;;;;11.77;10.57;;;;;;;;;;5011122;28;20177;-81
2023/10/25 10:32:01;;;;;;;11.30;10.17;;;;;;;;;;4998970;28;20282;-80
2023/10/25 10:34:36;;;;;;;22.57;18.00;;;;;;;;;;4993997;28;20190;-80
2023/10/25 10:37:05;;;;;;;11.27;10.17;;;;;;;;;;4989643;28;20178;-80
2023/10/25 10:39:30;;;;;;;9.87;8.97;;;;;;;;;;4995167;28;20197;-80
2023/10/25 10:42:01;;;;;;;9.90;9.10;;;;;;;;;;4993513;28;20206;-81
2023/10/25 10:44:26;;;;;;;10.33;9.43;;;;;;;;;;4994961;28;20210;-80
2023/10/25 10:46:54;;;;;;;10.37;9.47;;;;;;;;;;4986680;28;20206;-81
2023/10/25 10:49:20;;;;;;;9.43;8.53;;;;;;;;;;5009016;28;20270;-81
2023/10/25 10:51:47;;;;;;;9.03;8.23;;;;;;;;;;5002163;28;20186;-81
2023/10/25 10:54:12;;;;;;;8.07;7.33;;;;;;;;;;4995214;28;20192;-80
2023/10/25 10:56:37;;;;;;;8.43;7.63;;;;;;;;;;5010112;28;20722;-80
2023/10/25 10:59:03;;;;;;;9.73;8.83;;;;;;;;;;4992571;28;20222;-80
2023/10/25 11:01:29;;;;;;;9.37;8.47;;;;;;;;;;4994681;28;20201;-80
2023/10/25 11:03:58;;;;;;;12.80;11.60;;;;;;;;;;4990415;28;20191;-80
2023/10/25 11:06:24;;;;;;;14.63;11.80;;;;;;;;;;4987463;28;20185;-80
2023/10/25 11:08:50;;;;;;;8.97;8.23;;;;;;;;;;4993079;28;20190;-79
2023/10/25 11:11:17;;;;;;;7.70;7.00;;;;;;;;;;5012299;28;20176;-80
2023/10/25 11:13:43;;;;;;;8.70;7.83;;;;;;;;;;4992808;28;20237;-80
2023/10/25 11:16:11;;;;;;;10.67;9.57;;;;;;;;;;5004258;28;20182;-80
2023/10/25 11:18:36;;;;;;;8.40;7.70;;;;;;;;;;4989755;28;20230;-80
2023/10/25 11:21:01;;;;;;;11.60;10.50;;;;;;;;;;4991406;28;20199;-80
2023/10/25 11:23:27;;;;;;;7.77;7.17;;;;;;;;;;5014429;28;20171;-80
2023/10/25 11:25:52;;;;;;;6.90;6.27;;;;;;;;;;4998247;28;20207;-81
2023/10/25 11:28:18;;;;;;;6.13;5.53;;;;;;;;;;4990510;28;20186;-81
2023/10/25 11:30:44;;;;;;;6.33;5.83;;;;;;;;;;4989551;28;20315;-81
2023/10/25 11:33:09;;;;;;;7.10;5.73;;;;;;;;;;5015846;28;20266;-81
2023/10/25 11:35:36;;;;;;;7.07;6.47;;;;;;;;;;4991851;28;20184;-81
2023/10/25 11:38:02;;;;;;;5.73;5.13;;;;;;;;;;4993595;28;20182;-81
2023/10/25 11:40:53;;;;;;;4.07;3.77;;;;;;;;;;4993512;28;20171;-81
2023/10/25 11:43:18;;;;;;;4.87;4.47;;;;;;;;;;4984996;28;20305;-81
2023/10/25 11:45:45;;;;;;;4.93;4.53;;;;;;;;;;4992361;28;20342;-79
2023/10/25 11:48:10;;;;;;;4.53;4.03;;;;;;;;;;4989104;28;20201;-80
2023/10/25 11:50:35;;;;;;;4.73;3.87;;;;;;;;;;4993179;28;20183;-81
2023/10/25 11:53:01;;;;;;;4.47;4.07;;;;;;;;;;4993442;28;20170;-80
2023/10/25 11:55:27;;;;;;;5.67;4.13;;;;;;;;;;4993744;28;20163;-81
2023/10/25 11:57:52;;;;;;;4.57;4.27;;;;;;;;;;4987093;28;20182;-80
2023/10/25 12:00:18;;;;;;;5.33;4.33;;;;;;;;;;5005530;28;20182;-81
2023/10/25 12:02:43;;;;;;;4.80;4.40;;;;;;;;;;4994233;28;20198;-80
2023/10/25 12:05:09;;;;;;;4.43;4.03;;;;;;;;;;4996117;28;20179;-81
2023/10/25 12:07:34;;;;;;;5.07;4.67;;;;;;;;;;4992752;28;20269;-81
2023/10/25 12:09:59;;;;;;;4.20;3.80;;;;;;;;;;4989203;28;20199;-81
2023/10/25 12:12:25;;;;;;;4.50;4.10;;;;;;;;;;5006244;28;20276;-79
2023/10/25 12:14:50;;;;;;;4.17;3.87;;;;;;;;;;4987014;28;20180;-79
2023/10/25 12:17:16;;;;;;;3.93;3.60;;;;;;;;;;4992957;28;20234;-79
2023/10/25 12:19:41;;;;;;;4.30;4.00;;;;;;;;;;4989003;28;20175;-79
2023/10/25 12:22:08;;;;;;;3.60;3.30;;;;;;;;;;4993797;28;20274;-80
2023/10/25 12:24:34;;;;;;;4.23;3.83;;;;;;;;;;5010197;28;20174;-79
2023/10/25 12:27:00;;;;;;;3.90;3.50;;;;;;;;;;4994145;28;20184;-80
2023/10/25 12:29:25;;;;;;;3.77;3.47;;;;;;;;;;4992569;28;20168;-80
2023/10/25 12:31:50;;;;;;;3.90;3.53;;;;;;;;;;4991392;28;20170;-80
2023/10/25 12:34:15;;;;;;;5.03;4.63;;;;;;;;;;4986547;28;20229;-81
2023/10/25 12:36:41;;;;;;;3.87;3.57;;;;;;;;;;4990364;28;20180;-80
2023/10/25 12:39:06;;;;;;;8.67;7.77;;;;;;;;;;4991940;28;20192;-80
2023/10/25 12:41:32;;;;;;;5.37;4.97;;;;;;;;;;5003235;28;20192;-80
2023/10/25 12:43:58;;;;;;;4.00;3.70;;;;;;;;;;4988608;28;20178;-80
2023/10/25 12:46:23;;;;;;;4.67;4.27;;;;;;;;;;4993106;28;20273;-80
2023/10/25 12:48:48;;;;;;;3.90;3.60;;;;;;;;;;5009375;28;20175;-81
2023/10/25 12:51:13;;;;;;;3.63;3.20;;;;;;;;;;4993935;28;20175;-81
2023/10/25 12:53:39;;;;;;;4.07;3.77;;;;;;;;;;4982039;28;20177;-80
2023/10/25 12:56:04;;;;;;;3.10;2.90;;;;;;;;;;4992538;28;20178;-82
2023/10/25 12:58:29;;;;;;;2.67;2.47;;;;;;;;;;4990449;28;20211;-82
2023/10/25 13:00:55;;;;;;;3.23;2.70;;;;;;;;;;4983558;28;20182;-82
2023/10/25 13:03:20;;;;;;;3.20;3.00;;;;;;;;;;4985976;28;20303;-83
2023/10/25 13:05:46;;;;;;;2.60;2.40;;;;;;;;;;4990318;28;20462;-82
2023/10/25 13:08:11;;;;;;;3.00;2.43;;;;;;;;;;4991865;28;20260;-83
2023/10/25 13:10:36;;;;;;;2.60;2.40;;;;;;;;;;4988088;28;20172;-82
2023/10/25 13:13:01;;;;;;;2.93;2.73;;;;;;;;;;4989159;28;20228;-82
2023/10/25 13:15:26;;;;;;;2.80;2.60;;;;;;;;;;4991859;28;20190;-81
2023/10/25 13:17:52;;;;;;;3.50;3.03;;;;;;;;;;5006749;28;20202;-82
2023/10/25 13:20:17;;;;;;;8.50;7.80;;;;;;;;;;4986177;28;20172;-82
2023/10/25 13:22:43;;;;;;;2.93;2.73;;;;;;;;;;5003891;28;20257;-82
2023/10/25 13:25:08;;;;;;;11.07;9.87;;;;;;;;;;4991484;28;20195;-81
2023/10/25 13:27:33;;;;;;;8.70;7.33;;;;;;;;;;5007889;28;20218;-81
2023/10/25 13:29:59;;;;;;;3.43;3.13;;;;;;;;;;4986478;28;20275;-81
2023/10/25 13:32:26;;;;;;;4.63;4.17;;;;;;;;;;4992186;28;20178;-81
2023/10/25 13:34:52;;;;;;;5.83;4.97;;;;;;;;;;4995226;28;20182;-81
2023/10/25 13:37:17;;;;;;;2.50;2.30;;;;;;;;;;4992366;28;20179;-80
2023/10/25 13:39:42;;;;;;;2.80;2.60;;;;;;;;;;4992096;28;20188;-80
2023/10/25 13:42:09;;;;;;;2.10;2.00;;;;;;;;;;4988852;28;20195;-81
2023/10/25 13:44:35;;;;;;;2.20;2.00;;;;;;;;;;4988918;28;20304;-81
2023/10/25 13:47:00;;;;;;;3.27;2.50;;;;;;;;;;4981766;28;20435;-81
2023/10/25 13:49:25;;;;;;;2.40;2.20;;;;;;;;;;4990480;28;20253;-81
2023/10/25 13:51:51;;;;;;;14.90;10.53;;;;;;;;;;4990582;28;20187;-81
2023/10/25 13:54:16;;;;;;;5.63;4.27;;;;;;;;;;4985242;28;20496;-80
2023/10/25 13:56:41;;;;;;;2.40;2.20;;;;;;;;;;4991189;28;20185;-81
2023/10/25 13:59:06;;;;;;;2.10;2.00;;;;;;;;;;4992121;28;20182;-80
2023/10/25 14:01:32;;;;;;;3.07;2.63;;;;;;;;;;4988350;28;20203;-80
2023/10/25 14:03:57;;;;;;;2.73;1.70;;;;;;;;;;4991907;28;20256;-80
2023/10/25 14:06:22;;;;;;;2.40;2.20;;;;;;;;;;4979953;28;20178;-80
2023/10/25 14:08:47;;;;;;;6.83;5.20;;;;;;;;;;4987310;28;20215;-80
2023/10/25 14:11:13;;;;;;;4.17;3.50;;;;;;;;;;4992298;28;20202;-80
2023/10/25 14:13:38;;;;;;;1.60;1.50;;;;;;;;;;4994988;28;20230;-81
2023/10/25 14:16:07;;;;;;;1.47;1.23;;;;;;;;;;4986594;28;20183;-80
2023/10/25 14:18:32;;;;;;;1.47;1.37;;;;;;;;;;4987956;28;20213;-80
2023/10/25 14:20:58;;;;;;;1.67;1.57;;;;;;;;;;4990878;28;20186;-80
2023/10/25 14:23:23;;;;;;;1.77;1.30;;;;;;;;;;4991207;28;20207;-80
2023/10/25 14:25:48;;;;;;;2.80;1.67;;;;;;;;;;4985744;28;20207;-80
2023/10/25 14:28:13;;;;;;;2.53;1.37;;;;;;;;;;5009681;28;20363;-80
2023/10/25 14:30:39;;;;;;;1.53;1.43;;;;;;;;;;5001167;28;20263;-70